Time;durP1;ratioP1;P1;durP2;ratioP2;P2;SDS_P1;SDS_P2;PMS_P1;PMS_P2;Temp;Humidity;BMP_temperature;BMP_pressure;BME280_temperature;BME280_humidity;BME280_pressure;Samples;Min_cycle;Max_cycle;Signal;HPM_P1;HPM_P2
2022/10/30 00:01:03;;;;;;;444.43;413.77;;;13.70;29.30;;;;;;5052246;28;20539;-73
2022/10/30 00:03:29;;;;;;;739.83;687.80;;;13.70;29.30;;;;;;5052523;28;20177;-72
2022/10/30 00:05:54;;;;;;;763.40;709.93;;;13.70;29.30;;;;;;5052614;28;20701;-72
2022/10/30 00:08:24;;;;;;;740.30;685.40;;;13.70;29.30;;;;;;5052486;28;20178;-72
2022/10/30 00:10:50;;;;;;;877.70;816.13;;;13.70;29.30;;;;;;5052797;28;20629;-72
2022/10/30 00:13:16;;;;;;;787.20;732.03;;;13.60;29.20;;;;;;5052452;28;20419;-72
2022/10/30 00:15:52;;;;;;;598.90;556.33;;;13.60;29.20;;;;;;5052362;28;20775;-72
2022/10/30 00:18:19;;;;;;;536.77;498.90;;;13.60;29.20;;;;;;5052458;28;20416;-72
2022/10/30 00:20:45;;;;;;;438.33;408.43;;;13.60;29.20;;;;;;5052016;28;20419;-73
2022/10/30 00:23:11;;;;;;;891.63;827.27;;;13.60;29.80;;;;;;5052178;28;20473;-72
2022/10/30 00:25:36;;;;;;;813.33;757.77;;;13.60;29.20;;;;;;5052331;28;20437;-72
2022/10/30 00:28:05;;;;;;;871.13;809.57;;;13.50;29.70;;;;;;5052242;28;20180;-72
2022/10/30 00:30:32;;;;;;;871.57;810.53;;;13.50;29.80;;;;;;5052029;28;20184;-72
2022/10/30 00:32:58;;;;;;;611.13;568.97;;;13.50;29.70;;;;;;5050642;28;20482;-72
2022/10/30 00:35:23;;;;;;;869.90;809.90;;;13.40;30.10;;;;;;5052060;28;20850;-73
2022/10/30 00:37:49;;;;;;;694.00;645.67;;;13.40;30.30;;;;;;5052106;28;20646;-73
2022/10/30 00:40:15;;;;;;;706.03;654.80;;;13.40;30.70;;;;;;5052447;28;20701;-73
2022/10/30 00:42:42;;;;;;;376.00;349.33;;;13.40;30.80;;;;;;5051987;28;20588;-73
2022/10/30 00:45:15;;;;;;;646.67;603.13;;;13.40;30.70;;;;;;5052017;28;20432;-73
2022/10/30 00:47:45;;;;;;;435.30;405.83;;;13.40;30.60;;;;;;5051761;28;20417;-72
2022/10/30 00:50:28;;;;;;;474.10;441.87;;;13.30;31.10;;;;;;5051934;28;20772;-73
2022/10/30 00:52:58;;;;;;;597.30;554.07;;;13.40;31.50;;;;;;5051851;28;20411;-73
2022/10/30 00:55:33;;;;;;;651.23;604.57;;;13.40;31.20;;;;;;5051759;28;20428;-73
2022/10/30 00:58:02;;;;;;;568.77;529.13;;;13.40;30.80;;;;;;5050404;28;20435;-73
2022/10/30 01:00:29;;;;;;;667.13;617.20;;;13.40;30.80;;;;;;5051622;28;20418;-72
2022/10/30 01:02:56;;;;;;;426.73;397.17;;;13.40;31.10;;;;;;5051598;28;20463;-72
2022/10/30 01:05:26;;;;;;;450.10;418.13;;;13.40;30.00;;;;;;5051586;28;20547;-72
2022/10/30 01:07:51;;;;;;;413.87;384.40;;;13.50;29.60;;;;;;5050423;28;20430;-72
2022/10/30 01:10:18;;;;;;;535.97;497.03;;;13.60;29.20;;;;;;5050376;28;20470;-73
2022/10/30 01:12:45;;;;;;;793.97;741.93;;;13.70;28.50;;;;;;5051284;28;20267;-72
2022/10/30 01:15:12;;;;;;;813.10;758.23;;;13.70;27.80;;;;;;5050173;28;20501;-73
2022/10/30 01:18:04;;;;;;;663.13;616.33;;;13.70;28.30;;;;;;5051854;28;20452;-72
2022/10/30 01:20:44;;;;;;;855.43;794.00;;;13.80;28.20;;;;;;5051969;28;20414;-72
2022/10/30 01:23:20;;;;;;;810.63;753.53;;;13.90;26.60;;;;;;5050438;28;20459;-72
2022/10/30 01:26:07;;;;;;;835.03;777.60;;;14.00;26.40;;;;;;5051716;28;20429;-72
2022/10/30 01:29:01;;;;;;;674.40;625.17;;;14.00;26.60;;;;;;5051646;28;20404;-72
2022/10/30 01:31:33;;;;;;;547.40;510.80;;;14.10;26.70;;;;;;5051414;28;20938;-72
2022/10/30 01:34:39;;;;;;;362.70;338.60;;;14.00;26.70;;;;;;5053132;28;20466;-72
2022/10/30 01:37:13;;;;;;;801.83;744.77;;;14.00;26.70;;;;;;5053063;28;20527;-72
2022/10/30 01:39:40;;;;;;;753.60;701.37;;;14.00;26.60;;;;;;5055294;28;20408;-73
2022/10/30 01:42:42;;;;;;;778.53;719.37;;;14.00;26.60;;;;;;5054886;28;20989;-72
2022/10/30 01:45:14;;;;;;;320.73;298.97;;;14.00;26.70;;;;;;5055171;28;20422;-73
2022/10/30 01:47:53;;;;;;;814.83;758.53;;;14.00;26.50;;;;;;5055248;28;20793;-73
2022/10/30 01:50:53;;;;;;;768.33;715.70;;;14.00;26.50;;;;;;5055127;28;20894;-73
2022/10/30 01:53:38;;;;;;;739.37;687.63;;;13.90;26.90;;;;;;5028149;28;20471;-72
2022/10/30 01:56:35;;;;;;;795.50;740.90;;;13.70;27.60;;;;;;5053515;28;20442;-73
2022/10/30 01:59:10;;;;;;;838.17;780.63;;;13.60;27.90;;;;;;5054952;28;20407;-72
2022/10/30 02:01:38;;;;;;;833.80;776.80;;;13.60;27.70;;;;;;5054456;28;20459;-73
2022/10/30 02:04:05;;;;;;;243.20;226.43;;;13.60;27.60;;;;;;5054811;28;20451;-73
2022/10/30 02:06:30;;;;;;;379.20;353.97;;;13.60;27.80;;;;;;5054544;28;20443;-72
2022/10/30 02:08:56;;;;;;;736.90;684.63;;;13.60;28.10;;;;;;5053497;28;20423;-75
2022/10/30 02:11:25;;;;;;;619.27;577.90;;;13.60;28.10;;;;;;5055002;28;20182;-72
2022/10/30 02:13:54;;;;;;;830.83;773.57;;;13.50;28.80;;;;;;5053274;28;20432;-72
2022/10/30 02:16:22;;;;;;;631.43;586.37;;;13.50;28.60;;;;;;5053195;28;20464;-72
2022/10/30 02:18:47;;;;;;;722.47;673.50;;;13.50;28.80;;;;;;5054539;28;20409;-72
2022/10/30 02:21:13;;;;;;;817.10;760.93;;;13.50;29.10;;;;;;5054442;28;20462;-72
2022/10/30 02:23:39;;;;;;;819.77;763.57;;;13.40;29.00;;;;;;5054539;28;20330;-71
2022/10/30 02:26:04;;;;;;;727.93;677.67;;;13.40;29.10;;;;;;5054303;28;20223;-71
2022/10/30 02:28:30;;;;;;;431.07;401.60;;;13.40;29.10;;;;;;5054322;28;20174;-72
2022/10/30 02:30:56;;;;;;;586.67;546.17;;;13.40;29.10;;;;;;5054597;28;20469;-71
2022/10/30 02:33:23;;;;;;;678.77;631.83;;;13.40;29.10;;;;;;5054221;28;20178;-72
2022/10/30 02:35:49;;;;;;;494.93;460.27;;;13.30;28.90;;;;;;5054139;28;20790;-71
2022/10/30 02:38:14;;;;;;;841.57;782.30;;;13.30;28.90;;;;;;5054853;28;20422;-74
2022/10/30 02:40:40;;;;;;;607.17;565.00;;;13.30;28.70;;;;;;5054296;28;20906;-72
2022/10/30 02:43:06;;;;;;;497.77;462.37;;;13.30;29.00;;;;;;5054057;28;20211;-72
2022/10/30 02:45:31;;;;;;;819.30;764.23;;;13.30;28.60;;;;;;5053737;28;20226;-73
2022/10/30 02:47:59;;;;;;;833.90;778.30;;;13.40;28.50;;;;;;5054064;28;20170;-73
2022/10/30 02:50:25;;;;;;;379.03;352.70;;;13.40;28.10;;;;;;5052752;28;20274;-73
2022/10/30 02:52:50;;;;;;;254.40;236.57;;;13.40;28.30;;;;;;5053645;28;20507;-73
2022/10/30 02:55:16;;;;;;;766.27;713.47;;;13.30;28.50;;;;;;5053809;28;20440;-73
2022/10/30 02:57:45;;;;;;;740.67;690.67;;;13.30;28.50;;;;;;5053892;28;20177;-73
2022/10/30 03:00:14;;;;;;;485.93;451.93;;;13.20;28.60;;;;;;5052602;28;20190;-72
2022/10/30 03:02:40;;;;;;;558.57;519.83;;;13.20;28.90;;;;;;5052170;28;20483;-72
2022/10/30 03:07:31;;;;;;;792.63;739.53;;;13.20;28.90;;;;;;5055271;22;20237;-74
2022/10/30 03:09:56;;;;;;;363.77;338.80;;;13.20;28.90;;;;;;5033573;28;20206;-74
2022/10/30 03:12:22;;;;;;;839.60;780.50;;;13.20;29.00;;;;;;5033324;28;20548;-75
2022/10/30 03:14:48;;;;;;;378.67;352.40;;;13.20;29.00;;;;;;5033551;28;20591;-75
2022/10/30 03:17:13;;;;;;;401.17;373.37;;;13.20;28.70;;;;;;5033488;28;20196;-75
2022/10/30 03:19:39;;;;;;;466.83;434.43;;;13.20;29.00;;;;;;5033540;28;20665;-74
2022/10/30 03:22:06;;;;;;;322.30;298.90;;;13.10;28.80;;;;;;5033067;28;20199;-75
2022/10/30 03:24:31;;;;;;;727.80;676.23;;;13.10;28.90;;;;;;5033585;28;20908;-75
2022/10/30 03:26:57;;;;;;;885.07;824.80;;;13.10;28.90;;;;;;5033153;28;20515;-75
2022/10/30 03:29:22;;;;;;;736.47;683.10;;;13.10;28.90;;;;;;5033294;28;20648;-75
2022/10/30 03:31:48;;;;;;;696.07;648.73;;;13.10;28.90;;;;;;5033252;28;20532;-74
2022/10/30 03:34:13;;;;;;;301.87;281.60;;;13.10;28.90;;;;;;5033160;28;20608;-75
2022/10/30 03:36:39;;;;;;;722.97;672.07;;;13.10;28.90;;;;;;5032945;28;20222;-74
2022/10/30 03:39:05;;;;;;;741.30;690.43;;;13.00;28.80;;;;;;5033044;28;20175;-75
2022/10/30 03:41:30;;;;;;;893.20;831.13;;;13.00;28.80;;;;;;5032657;28;20201;-75
2022/10/30 03:43:56;;;;;;;751.57;699.80;;;13.00;28.80;;;;;;5032934;28;20217;-75
2022/10/30 03:46:21;;;;;;;866.83;807.30;;;13.00;28.80;;;;;;5032855;28;20204;-74
2022/10/30 03:48:50;;;;;;;264.10;245.13;;;12.90;29.00;;;;;;5032825;28;20253;-75
2022/10/30 03:51:16;;;;;;;414.47;385.57;;;12.90;29.20;;;;;;5032508;28;20179;-75
2022/10/30 03:53:41;;;;;;;901.63;838.77;;;12.90;29.20;;;;;;5032775;28;20414;-74
2022/10/30 03:56:08;;;;;;;784.83;729.20;;;12.90;29.50;;;;;;5031982;28;20422;-75
2022/10/30 03:58:34;;;;;;;782.33;728.97;;;12.80;29.60;;;;;;5032801;28;20263;-74
2022/10/30 04:01:01;;;;;;;864.03;804.13;;;12.80;29.60;;;;;;5030938;28;20470;-74
2022/10/30 04:03:27;;;;;;;266.07;246.57;;;12.70;29.70;;;;;;5032664;28;20171;-74
2022/10/30 04:05:53;;;;;;;744.87;691.40;;;12.70;30.00;;;;;;5032296;28;20453;-75
2022/10/30 04:08:18;;;;;;;832.07;775.20;;;12.70;29.80;;;;;;5032501;28;20167;-74
2022/10/30 04:10:45;;;;;;;692.60;645.60;;;12.70;29.60;;;;;;5030982;28;20175;-75
2022/10/30 04:13:12;;;;;;;842.07;783.10;;;12.60;29.80;;;;;;5032426;28;20172;-74
2022/10/30 04:15:38;;;;;;;881.97;821.87;;;12.60;30.00;;;;;;5032339;28;20536;-74
2022/10/30 04:18:04;;;;;;;764.83;710.97;;;12.60;30.20;;;;;;5032379;28;20635;-74
2022/10/30 04:20:30;;;;;;;676.70;629.83;;;12.50;30.10;;;;;;5031014;28;20418;-74
2022/10/30 04:23:00;;;;;;;150.97;138.87;;;12.50;30.60;;;;;;5031906;28;20793;-74
2022/10/30 04:25:27;;;;;;;437.20;407.20;;;12.50;30.80;;;;;;5032213;28;20179;-74
2022/10/30 04:27:53;;;;;;;731.13;680.63;;;12.50;31.10;;;;;;5032400;28;20417;-74
2022/10/30 04:30:33;;;;;;;636.07;591.47;;;12.50;31.20;;;;;;5032106;28;20930;-74
2022/10/30 04:33:00;;;;;;;852.10;793.30;;;12.40;31.60;;;;;;5031820;28;20183;-74
2022/10/30 04:35:29;;;;;;;821.33;762.90;;;12.30;32.30;;;;;;5032192;28;20506;-74
2022/10/30 04:38:01;;;;;;;517.00;480.80;;;12.30;32.20;;;;;;5032046;28;20413;-74
2022/10/30 04:40:29;;;;;;;909.70;844.83;;;12.30;32.20;;;;;;5032047;28;20418;-74
2022/10/30 04:42:55;;;;;;;894.73;832.77;;;12.30;32.20;;;;;;5031735;28;20457;-74
2022/10/30 04:45:21;;;;;;;887.63;826.10;;;12.30;32.10;;;;;;5031928;28;20764;-74
2022/10/30 04:47:47;;;;;;;433.67;402.23;;;12.20;31.90;;;;;;5030665;28;20500;-74
2022/10/30 04:50:13;;;;;;;852.00;793.40;;;12.20;32.10;;;;;;5031929;28;20836;-74
2022/10/30 04:52:38;;;;;;;869.70;809.07;;;12.10;31.60;;;;;;5031650;28;20179;-74
2022/10/30 04:55:05;;;;;;;848.30;791.50;;;12.10;32.30;;;;;;5031858;28;20938;-74
2022/10/30 04:57:30;;;;;;;421.23;391.83;;;12.00;32.30;;;;;;5030540;28;20203;-74
2022/10/30 04:59:57;;;;;;;907.33;844.93;;;12.00;32.70;;;;;;5031851;28;20420;-74
2022/10/30 05:02:23;;;;;;;834.87;777.03;;;12.00;32.70;;;;;;5030204;28;20246;-74
2022/10/30 05:04:48;;;;;;;884.20;824.73;;;12.00;32.70;;;;;;5031800;28;20445;-74
2022/10/30 05:07:14;;;;;;;609.37;566.53;;;11.90;32.70;;;;;;5031926;28;20210;-74
2022/10/30 05:09:40;;;;;;;902.23;840.67;;;11.90;32.60;;;;;;5035955;28;20175;-74
2022/10/30 05:12:06;;;;;;;405.43;376.70;;;11.90;32.70;;;;;;5034451;28;20520;-74
2022/10/30 05:14:32;;;;;;;386.27;359.60;;;11.80;32.50;;;;;;5036274;28;20583;-74
2022/10/30 05:16:58;;;;;;;305.83;282.70;;;11.80;32.50;;;;;;5035642;28;20202;-74
2022/10/30 05:19:27;;;;;;;332.87;309.03;;;11.70;33.20;;;;;;5035804;28;20414;-74
2022/10/30 05:21:53;;;;;;;814.33;758.00;;;11.70;33.00;;;;;;5035315;28;20446;-75
2022/10/30 05:24:18;;;;;;;791.93;738.30;;;11.70;32.80;;;;;;5034262;28;20484;-75
2022/10/30 05:26:45;;;;;;;860.27;803.00;;;11.60;33.40;;;;;;5035394;28;20433;-75
2022/10/30 05:29:10;;;;;;;847.73;791.70;;;11.50;33.50;;;;;;5035393;28;20164;-75
2022/10/30 05:31:36;;;;;;;685.93;641.47;;;11.40;33.70;;;;;;5033900;28;20428;-75
2022/10/30 05:34:01;;;;;;;910.57;849.30;;;11.40;34.40;;;;;;5035418;28;20184;-74
2022/10/30 05:36:27;;;;;;;468.37;436.03;;;11.30;34.60;;;;;;5035492;28;20202;-74
2022/10/30 05:38:52;;;;;;;864.30;806.73;;;11.30;35.60;;;;;;5035335;28;20175;-75
2022/10/30 05:41:18;;;;;;;863.83;806.07;;;11.30;35.60;;;;;;5035023;28;20207;-75
2022/10/30 05:43:43;;;;;;;900.43;838.97;;;11.20;36.20;;;;;;5035470;28;20518;-74
2022/10/30 05:46:09;;;;;;;788.50;732.13;;;11.20;36.00;;;;;;5035357;28;20683;-74
2022/10/30 05:48:35;;;;;;;873.30;815.10;;;11.30;35.90;;;;;;5035240;28;20175;-74
2022/10/30 05:51:01;;;;;;;779.87;729.30;;;11.30;36.00;;;;;;5034755;28;20175;-74
2022/10/30 05:53:26;;;;;;;873.23;814.77;;;11.20;36.00;;;;;;5035031;28;20171;-74
2022/10/30 05:55:56;;;;;;;877.27;817.97;;;11.20;36.20;;;;;;5035043;28;20433;-74
2022/10/30 05:58:22;;;;;;;809.87;753.07;;;11.20;37.20;;;;;;5034921;28;20175;-74
2022/10/30 06:00:47;;;;;;;792.03;737.17;;;11.20;36.70;;;;;;5034703;28;20751;-75
2022/10/30 06:03:13;;;;;;;428.17;397.27;;;11.20;36.60;;;;;;5033462;28;20209;-75
2022/10/30 06:05:39;;;;;;;518.60;481.00;;;11.30;36.70;;;;;;5034633;28;20280;-72
2022/10/30 06:08:06;;;;;;;698.67;649.70;;;11.40;36.70;;;;;;5034800;28;20171;-75
2022/10/30 06:10:32;;;;;;;808.57;752.30;;;11.30;36.20;;;;;;5034794;28;20229;-75
2022/10/30 06:13:03;;;;;;;620.80;578.47;;;11.30;36.40;;;;;;5034360;28;20911;-75
2022/10/30 06:15:29;;;;;;;316.53;293.17;;;11.30;35.80;;;;;;5034662;28;20426;-74
2022/10/30 06:17:55;;;;;;;314.57;291.17;;;11.40;36.60;;;;;;5034634;28;20425;-75
2022/10/30 06:20:26;;;;;;;854.53;795.93;;;11.40;36.00;;;;;;5033874;28;20463;-75
2022/10/30 06:23:02;;;;;;;249.00;229.30;;;11.40;35.80;;;;;;5034251;28;20461;-73
2022/10/30 06:25:31;;;;;;;782.17;729.23;;;11.40;36.00;;;;;;5034428;28;20958;-73
2022/10/30 06:27:57;;;;;;;789.80;735.77;;;11.50;35.10;;;;;;5034432;28;20444;-73
2022/10/30 06:30:23;;;;;;;892.60;832.20;;;11.60;34.20;;;;;;5034605;28;20402;-73
2022/10/30 06:32:49;;;;;;;595.80;554.03;;;11.60;34.50;;;;;;5032848;28;20514;-73
2022/10/30 06:35:15;;;;;;;653.40;610.50;;;11.70;33.40;;;;;;5032856;28;20492;-73
2022/10/30 06:37:45;;;;;;;659.97;615.03;;;11.70;32.40;;;;;;5033327;28;20619;-73
2022/10/30 06:40:11;;;;;;;794.50;740.90;;;11.80;32.50;;;;;;5033018;28;20426;-73
2022/10/30 06:42:48;;;;;;;874.83;815.13;;;11.90;32.00;;;;;;5033041;28;20465;-73
2022/10/30 06:45:15;;;;;;;816.43;760.23;;;12.00;31.60;;;;;;5033898;28;20198;-73
2022/10/30 06:47:40;;;;;;;896.00;833.00;;;12.10;31.20;;;;;;5034003;28;20406;-73
2022/10/30 06:50:09;;;;;;;484.47;449.20;;;12.20;31.00;;;;;;5033622;28;20418;-73
2022/10/30 06:52:34;;;;;;;685.03;637.70;;;12.30;30.20;;;;;;5035284;28;20222;-73
2022/10/30 06:55:00;;;;;;;671.73;625.20;;;12.50;30.30;;;;;;5034149;28;20419;-73
2022/10/30 06:57:29;;;;;;;846.07;789.40;;;12.60;29.20;;;;;;5033834;28;20206;-74
2022/10/30 06:59:54;;;;;;;863.50;804.77;;;12.60;28.50;;;;;;5033885;28;20188;-74
2022/10/30 07:02:20;;;;;;;767.63;717.03;;;12.70;28.60;;;;;;5033477;28;20443;-74
2022/10/30 07:04:45;;;;;;;581.97;543.43;;;12.80;28.10;;;;;;5033681;28;20175;-73
2022/10/30 07:07:12;;;;;;;219.13;202.03;;;12.90;27.50;;;;;;5033611;28;20220;-73
2022/10/30 07:09:38;;;;;;;601.30;559.63;;;13.00;27.60;;;;;;5033656;28;20329;-73
2022/10/30 07:12:04;;;;;;;816.37;761.10;;;13.10;27.10;;;;;;5033695;28;20445;-73
2022/10/30 07:14:29;;;;;;;280.60;258.70;;;13.20;26.70;;;;;;5033851;28;20276;-73
2022/10/30 07:16:55;;;;;;;744.43;690.13;;;13.40;26.00;;;;;;5034021;28;20443;-75
2022/10/30 07:19:21;;;;;;;566.17;523.93;;;13.50;25.90;;;;;;5034828;28;20184;-76
2022/10/30 07:21:47;;;;;;;567.63;525.43;;;13.60;25.10;;;;;;5034173;28;20205;-75
2022/10/30 07:24:12;;;;;;;699.83;649.27;;;13.70;25.10;;;;;;5034074;28;20556;-75
2022/10/30 07:26:38;;;;;;;584.70;542.43;;;13.80;25.00;;;;;;5034173;28;20228;-76
2022/10/30 07:29:04;;;;;;;281.87;260.23;;;14.00;24.20;;;;;;5033762;28;20171;-74
2022/10/30 07:31:32;;;;;;;710.80;659.20;;;14.00;23.70;;;;;;5042943;28;20182;-73
2022/10/30 07:33:57;;;;;;;707.07;654.00;;;14.10;23.30;;;;;;5043406;28;20433;-74
2022/10/30 07:36:23;;;;;;;481.10;445.80;;;14.20;22.80;;;;;;5033054;28;20437;-73
2022/10/30 07:38:49;;;;;;;650.20;600.97;;;14.30;22.70;;;;;;5032009;28;20183;-74
2022/10/30 07:41:17;;;;;;;762.53;706.23;;;14.50;22.20;;;;;;5033156;28;20265;-74
2022/10/30 07:43:43;;;;;;;713.17;659.57;;;14.50;21.70;;;;;;5036466;28;20418;-74
2022/10/30 07:46:09;;;;;;;889.63;819.93;;;14.50;21.40;;;;;;5034163;28;20491;-77
2022/10/30 07:48:34;;;;;;;731.73;676.33;;;14.60;21.50;;;;;;5052279;28;20520;-76
2022/10/30 07:51:00;;;;;;;323.33;298.33;;;14.70;21.00;;;;;;5039718;28;20285;-77
2022/10/30 07:53:25;;;;;;;750.40;696.23;;;14.80;20.50;;;;;;5033647;28;20178;-77
2022/10/30 07:55:51;;;;;;;560.73;520.10;;;14.80;19.80;;;;;;5037261;28;20253;-78
2022/10/30 07:58:16;;;;;;;838.13;774.10;;;14.90;19.00;;;;;;5032551;28;20207;-71
2022/10/30 08:00:42;;;;;;;365.07;340.17;;;14.90;18.70;;;;;;5032597;28;20178;-73
2022/10/30 08:03:09;;;;;;;556.23;513.60;;;14.90;18.30;;;;;;5031521;28;20210;-76
2022/10/30 08:05:35;;;;;;;883.83;810.67;;;14.90;18.40;;;;;;5032806;28;20300;-75
2022/10/30 08:08:00;;;;;;;874.17;803.47;;;15.00;18.10;;;;;;5033052;28;20861;-75
2022/10/30 08:10:26;;;;;;;344.87;320.37;;;15.00;18.00;;;;;;5033336;28;20191;-75
2022/10/30 08:12:52;;;;;;;643.30;597.40;;;15.10;17.60;;;;;;5033080;28;20274;-75
2022/10/30 08:15:17;;;;;;;637.27;589.83;;;15.10;17.70;;;;;;5029746;28;20191;-74
2022/10/30 08:17:45;;;;;;;788.13;730.00;;;15.10;18.00;;;;;;5017436;28;20197;-74
2022/10/30 08:20:12;;;;;;;646.10;595.63;;;15.20;18.20;;;;;;5029096;28;20270;-76
2022/10/30 08:22:45;;;;;;;887.60;819.27;;;15.30;17.70;;;;;;5027813;28;20931;-74
2022/10/30 08:25:10;;;;;;;469.43;436.17;;;15.40;17.80;;;;;;5019738;28;20497;-74
2022/10/30 08:27:36;;;;;;;929.50;856.07;;;15.50;17.70;;;;;;5009345;28;20946;-75
2022/10/30 08:30:02;;;;;;;866.73;800.30;;;15.60;17.40;;;;;;5009325;28;20665;-74
2022/10/30 08:32:27;;;;;;;723.57;666.63;;;15.70;17.30;;;;;;5025317;28;20584;-75
2022/10/30 08:34:53;;;;;;;609.93;561.33;;;15.70;17.10;;;;;;5029688;28;20441;-72
2022/10/30 08:37:18;;;;;;;568.97;526.37;;;15.80;16.90;;;;;;5032126;28;20211;-74
2022/10/30 08:39:44;;;;;;;740.40;686.17;;;15.90;17.20;;;;;;5031214;28;20187;-77
2022/10/30 08:42:09;;;;;;;898.23;829.97;;;15.80;16.60;;;;;;5031294;28;20211;-75
2022/10/30 08:44:35;;;;;;;618.43;571.17;;;15.80;17.10;;;;;;5015275;28;20241;-75
2022/10/30 08:47:00;;;;;;;562.27;520.27;;;15.80;16.90;;;;;;5026110;28;20241;-74
2022/10/30 08:49:26;;;;;;;587.37;543.47;;;15.90;16.60;;;;;;5030598;28;20187;-74
2022/10/30 08:51:51;;;;;;;846.17;778.07;;;15.90;16.50;;;;;;5031611;28;20266;-76
2022/10/30 08:54:18;;;;;;;947.63;873.00;;;15.90;16.70;;;;;;5031689;28;20652;-76
2022/10/30 08:56:44;;;;;;;937.67;863.47;;;15.90;16.60;;;;;;5032359;28;20469;-74
2022/10/30 08:59:09;;;;;;;583.13;540.57;;;15.90;16.40;;;;;;5031848;28;20266;-75
2022/10/30 09:01:35;;;;;;;863.57;798.73;;;16.00;16.50;;;;;;5031604;28;20199;-76
2022/10/30 09:04:01;;;;;;;557.87;516.60;;;16.00;16.10;;;;;;5030419;28;20189;-75
2022/10/30 09:06:27;;;;;;;720.87;667.77;;;16.10;15.90;;;;;;5063440;23;20547;-69
2022/10/30 09:08:52;;;;;;;583.97;543.07;;;16.10;16.10;;;;;;5049822;28;20181;-72
2022/10/30 09:11:18;;;;;;;485.10;451.63;;;16.10;16.00;;;;;;5068424;28;20208;-72
2022/10/30 09:13:44;;;;;;;720.73;665.77;;;16.10;16.20;;;;;;5070046;28;20177;-73
2022/10/30 09:16:09;;;;;;;569.50;526.97;;;16.10;15.30;;;;;;5069552;28;20240;-72
2022/10/30 09:18:35;;;;;;;483.07;448.87;;;16.20;15.00;;;;;;5050055;28;20286;-71
2022/10/30 09:21:03;;;;;;;565.87;524.37;;;16.20;14.50;;;;;;5060457;28;20218;-73
2022/10/30 09:23:28;;;;;;;684.27;631.83;;;16.30;14.40;;;;;;5069591;28;20264;-72
2022/10/30 09:25:56;;;;;;;505.50;468.60;;;16.30;14.00;;;;;;5068661;28;20531;-73
2022/10/30 09:28:22;;;;;;;621.33;573.43;;;16.30;14.00;;;;;;5070842;28;20174;-72
2022/10/30 09:30:51;;;;;;;487.67;452.27;;;16.40;14.10;;;;;;5055905;28;20582;-72
2022/10/30 09:33:17;;;;;;;570.13;526.87;;;16.50;14.20;;;;;;5050807;28;20193;-73
2022/10/30 09:35:43;;;;;;;629.43;582.83;;;16.60;14.20;;;;;;5049360;28;20409;-73
2022/10/30 09:38:09;;;;;;;727.87;671.00;;;16.70;14.60;;;;;;5050849;28;20183;-73
2022/10/30 09:41:09;;;;;;;505.70;471.30;;;16.70;14.90;;;;;;5062612;28;20276;-73
2022/10/30 09:43:54;;;;;;;904.23;827.67;;;16.90;14.40;;;;;;5070012;28;20759;-72
2022/10/30 09:46:55;;;;;;;703.07;649.10;;;17.00;14.50;;;;;;5054283;28;20440;-72
2022/10/30 09:50:09;;;;;;;690.13;634.97;;;17.10;14.60;;;;;;5028690;28;20472;-73
2022/10/30 09:53:11;;;;;;;453.20;423.13;;;17.20;14.60;;;;;;5017763;28;20488;-73
2022/10/30 09:55:48;;;;;;;578.87;535.97;;;17.40;14.50;;;;;;5033819;28;20409;-73
2022/10/30 09:58:19;;;;;;;692.07;636.97;;;17.50;14.50;;;;;;5050864;28;20436;-73
2022/10/30 10:01:30;;;;;;;930.83;851.43;;;17.60;12.70;;;;;;5074626;28;20412;-72
2022/10/30 10:04:17;;;;;;;842.20;771.07;;;17.70;12.10;;;;;;5012803;28;20435;-72
2022/10/30 10:06:46;;;;;;;736.07;679.80;;;17.70;11.90;;;;;;5012573;28;20447;-71
2022/10/30 10:09:17;;;;;;;693.60;637.63;;;17.80;12.50;;;;;;5035157;28;20465;-72
2022/10/30 10:11:55;;;;;;;829.40;765.37;;;17.90;12.40;;;;;;5072692;28;20450;-71
2022/10/30 10:14:36;;;;;;;588.50;543.90;;;18.00;11.70;;;;;;5074579;28;20439;-73
2022/10/30 10:17:04;;;;;;;799.20;738.20;;;18.10;10.90;;;;;;5074663;28;20481;-73
2022/10/30 10:19:59;;;;;;;600.60;557.63;;;18.20;10.90;;;;;;5055912;28;20516;-72
2022/10/30 10:22:26;;;;;;;800.67;737.10;;;18.40;9.20;;;;;;5052711;28;20460;-72
2022/10/30 10:24:53;;;;;;;717.10;661.00;;;18.50;10.10;;;;;;5054367;28;20463;-72
2022/10/30 10:27:47;;;;;;;878.33;805.87;;;18.60;9.60;;;;;;5054206;28;20437;-73
2022/10/30 10:30:19;;;;;;;708.10;653.37;;;18.70;9.00;;;;;;5034371;28;20404;-71
2022/10/30 10:33:06;;;;;;;321.17;299.90;;;18.70;8.80;;;;;;5065976;28;20414;-72
2022/10/30 10:35:52;;;;;;;317.43;293.97;;;18.90;9.10;;;;;;5034131;28;20414;-72
2022/10/30 10:38:40;;;;;;;703.20;645.60;;;19.00;8.30;;;;;;5074539;28;20425;-72
2022/10/30 10:41:21;;;;;;;781.87;720.07;;;19.20;8.30;;;;;;5052837;28;20478;-72
2022/10/30 10:44:24;;;;;;;466.77;431.00;;;19.30;7.10;;;;;;5053957;28;20436;-71
2022/10/30 10:47:09;;;;;;;648.07;596.70;;;19.40;7.10;;;;;;5053987;28;20543;-73
2022/10/30 10:49:44;;;;;;;630.50;580.63;;;19.60;7.30;;;;;;5071936;28;20420;-72
2022/10/30 10:52:18;;;;;;;605.47;561.00;;;19.80;6.50;;;;;;5073636;28;20674;-73
2022/10/30 10:54:49;;;;;;;739.27;682.33;;;19.90;7.50;;;;;;5073812;28;20411;-71
2022/10/30 10:57:36;;;;;;;377.30;348.07;;;20.00;6.00;;;;;;5073750;28;20435;-72
2022/10/30 11:00:13;;;;;;;901.60;831.60;;;20.10;6.20;;;;;;5042740;28;20952;-72
2022/10/30 11:02:40;;;;;;;592.33;549.23;;;20.20;5.50;;;;;;5053368;28;20870;-72
2022/10/30 11:05:30;;;;;;;960.33;879.53;;;20.30;5.00;;;;;;5052135;28;20458;-72
2022/10/30 11:08:25;;;;;;;899.07;825.30;;;20.40;4.70;;;;;;5050364;28;20789;-72
2022/10/30 11:11:03;;;;;;;848.73;780.73;;;20.40;4.70;;;;;;5066035;28;20429;-72
2022/10/30 11:13:37;;;;;;;412.03;382.47;;;20.50;4.20;;;;;;5073538;28;20901;-72
2022/10/30 11:16:24;;;;;;;720.53;665.57;;;20.60;5.40;;;;;;5073429;28;20428;-71
2022/10/30 11:18:56;;;;;;;744.03;686.53;;;20.80;2.10;;;;;;5061880;28;20885;-72
2022/10/30 11:21:24;;;;;;;834.33;772.03;;;20.80;2.70;;;;;;5052991;28;20412;-72
2022/10/30 11:23:51;;;;;;;822.50;761.90;;;20.90;3.50;;;;;;5052192;28;20440;-73
2022/10/30 11:26:17;;;;;;;642.50;594.90;;;20.90;3.50;;;;;;5053176;28;20922;-72
2022/10/30 11:29:04;;;;;;;694.90;645.30;;;21.00;4.00;;;;;;5053154;28;20416;-71
2022/10/30 11:31:39;;;;;;;804.13;739.37;;;21.10;4.60;;;;;;5071558;28;20193;-72
2022/10/30 11:34:17;;;;;;;1029.80;940.93;;;21.00;5.10;;;;;;5071774;28;20424;-72
2022/10/30 11:36:44;;;;;;;882.20;811.50;;;21.10;5.30;;;;;;5071628;28;20464;-72
2022/10/30 11:39:27;;;;;;;945.77;867.77;;;21.20;5.60;;;;;;5072974;28;20519;-72
2022/10/30 11:42:12;;;;;;;769.60;710.53;;;21.20;3.90;;;;;;5065068;28;20821;-73
2022/10/30 11:44:42;;;;;;;932.07;852.43;;;21.40;3.90;;;;;;5053011;28;20751;-72
2022/10/30 11:47:10;;;;;;;485.20;451.07;;;21.40;4.00;;;;;;5052706;28;20441;-72
2022/10/30 11:49:50;;;;;;;742.47;686.97;;;21.60;3.60;;;;;;5052371;28;20417;-72
2022/10/30 11:52:20;;;;;;;826.77;762.70;;;21.80;2.40;;;;;;5063254;28;20427;-73
2022/10/30 11:54:54;;;;;;;692.63;639.23;;;21.90;2.50;;;;;;5072551;28;20870;-73
2022/10/30 11:57:57;;;;;;;833.50;768.30;;;22.00;2.00;;;;;;5072778;28;20933;-73
2022/10/30 12:00:25;;;;;;;900.00;830.70;;;22.10;1.90;;;;;;5059163;28;20434;-73
2022/10/30 12:02:53;;;;;;;811.67;753.43;;;22.20;2.10;;;;;;5072073;28;20451;-73
2022/10/30 12:05:38;;;;;;;837.47;771.43;;;22.40;1.00;;;;;;5053681;28;20487;-73
2022/10/30 12:08:06;;;;;;;832.67;765.97;;;22.40;1.00;;;;;;5052369;28;20420;-73
2022/10/30 12:10:40;;;;;;;416.73;386.40;;;22.60;1.00;;;;;;5052383;28;20767;-72
2022/10/30 12:13:11;;;;;;;918.53;839.50;;;22.70;1.00;;;;;;5052149;28;20518;-73
2022/10/30 12:15:37;;;;;;;829.87;760.97;;;22.90;1.00;;;;;;5053947;28;20407;-73
2022/10/30 12:18:16;;;;;;;759.17;699.80;;;23.00;1.00;;;;;;5071715;28;20487;-72
2022/10/30 12:20:45;;;;;;;830.50;762.63;;;23.10;1.00;;;;;;5072147;28;20400;-73
2022/10/30 12:23:19;;;;;;;624.63;574.00;;;23.20;1.00;;;;;;5071922;28;20542;-72
2022/10/30 12:25:53;;;;;;;786.20;720.60;;;23.20;1.00;;;;;;5072031;28;20426;-72